createdAt,value
2022-12-17T00:01:20.376Z,86.57
2022-12-17T00:04:06.198Z,71.15
2022-12-17T00:06:51.360Z,84.75
2022-12-17T00:09:36.500Z,65.68
2022-12-17T00:12:21.622Z,83.47
2022-12-17T00:15:06.754Z,73.63
2022-12-17T00:17:51.977Z,65.93
2022-12-17T00:20:37.239Z,83.18
2022-12-17T00:23:24.057Z,461.38
2022-12-17T00:26:10.749Z,62.22
2022-12-17T00:28:56.030Z,64.55
2022-12-17T00:31:41.873Z,57.83
2022-12-17T00:34:27.063Z,52.40
2022-12-17T00:37:12.464Z,50.28
2022-12-17T00:39:59.362Z,61.10
2022-12-17T00:42:44.695Z,71.03
2022-12-17T00:45:29.850Z,59.78
2022-12-17T00:48:14.910Z,56.50
2022-12-17T00:51:00.040Z,65.88
2022-12-17T00:53:45.093Z,65.75
2022-12-17T00:56:30.219Z,73.22
2022-12-17T00:59:15.275Z,66.20
2022-12-17T01:02:00.455Z,46.67
2022-12-17T01:04:45.608Z,49.97
2022-12-17T01:07:30.987Z,40.30
2022-12-17T01:10:16.239Z,45.28
2022-12-17T01:13:01.687Z,55.45
2022-12-17T01:15:57.508Z,48.20
2022-12-17T01:18:42.408Z,47.22
2022-12-17T01:21:27.635Z,47.63
2022-12-17T01:24:13.528Z,46.25
2022-12-17T01:26:58.699Z,51.13
2022-12-17T01:29:43.735Z,42.22
2022-12-17T01:32:28.875Z,41.60
2022-12-17T01:35:14.524Z,41.22
2022-12-17T01:37:59.565Z,44.88
2022-12-17T01:40:44.878Z,42.15
2022-12-17T01:43:30.860Z,41.45
2022-12-17T01:46:16.444Z,53.03
2022-12-17T01:49:06.280Z,50.08
2022-12-17T01:51:52.309Z,50.33
2022-12-17T01:54:37.903Z,49.88
2022-12-17T01:57:24.851Z,46.20
2022-12-17T02:00:16.288Z,42.00
2022-12-17T02:03:01.988Z,46.05
2022-12-17T02:05:53.056Z,46.08
2022-12-17T02:08:56.579Z,46.45
2022-12-17T02:11:57.114Z,43.00
2022-12-17T02:14:57.925Z,42.65
2022-12-17T02:17:51.054Z,41.17
2022-12-17T02:20:45.365Z,38.55
2022-12-17T02:23:56.569Z,36.20
2022-12-17T02:26:52.476Z,38.25
2022-12-17T02:29:39.454Z,36.25
2022-12-17T02:32:25.054Z,34.42
2022-12-17T02:35:10.183Z,34.30
2022-12-17T02:37:55.219Z,34.67
2022-12-17T02:40:41.551Z,33.72
2022-12-17T02:43:27.739Z,37.67
2022-12-17T02:46:14.475Z,33.65
2022-12-17T02:48:59.467Z,35.88
2022-12-17T02:51:45.010Z,34.92
2022-12-17T02:54:29.842Z,33.53
2022-12-17T02:57:14.947Z,35.08
2022-12-17T02:59:59.852Z,31.95
2022-12-17T03:02:45.106Z,35.38
2022-12-17T03:05:46.060Z,34.92
2022-12-17T03:08:31.928Z,38.83
2022-12-17T03:11:17.069Z,34.47
2022-12-17T03:14:02.089Z,34.97
2022-12-17T03:16:47.491Z,34.05
2022-12-17T03:19:32.605Z,29.48
2022-12-17T03:22:17.943Z,30.35
2022-12-17T03:25:02.754Z,30.70
2022-12-17T03:27:47.909Z,30.17
2022-12-17T03:30:36.138Z,27.80
2022-12-17T03:33:22.689Z,29.98
2022-12-17T03:36:11.757Z,29.33
2022-12-17T03:38:56.937Z,29.52
2022-12-17T03:41:42.139Z,30.35
2022-12-17T03:44:27.194Z,33.15
2022-12-17T03:47:12.239Z,30.10
2022-12-17T03:49:57.470Z,30.50
2022-12-17T03:52:42.521Z,28.75
2022-12-17T03:55:27.684Z,29.55
2022-12-17T03:58:12.682Z,31.58
2022-12-17T04:00:57.735Z,31.48
2022-12-17T04:03:42.828Z,28.10
2022-12-17T04:06:27.659Z,29.73
2022-12-17T04:09:12.730Z,27.52
2022-12-17T04:11:57.841Z,27.83
2022-12-17T04:14:42.918Z,28.23
2022-12-17T04:17:28.156Z,29.73
2022-12-17T04:20:13.243Z,27.98
2022-12-17T04:22:58.444Z,27.73
2022-12-17T04:25:43.474Z,28.88
2022-12-17T04:28:28.399Z,27.83
2022-12-17T04:31:17.969Z,28.90
2022-12-17T04:34:02.860Z,28.45
2022-12-17T04:36:47.964Z,26.52
2022-12-17T04:39:32.748Z,30.38
2022-12-17T04:42:17.753Z,27.00
2022-12-17T04:45:02.890Z,29.35
2022-12-17T04:47:47.992Z,29.08
2022-12-17T04:50:33.155Z,28.60
2022-12-17T04:53:21.947Z,30.13
2022-12-17T04:56:07.616Z,29.55
2022-12-17T04:58:52.713Z,31.27
2022-12-17T05:01:37.873Z,33.25
2022-12-17T05:04:22.938Z,38.05
2022-12-17T05:07:07.664Z,33.63
2022-12-17T05:09:52.619Z,32.05
2022-12-17T05:12:37.711Z,29.58
2022-12-17T05:15:23.403Z,33.50
2022-12-17T05:18:08.299Z,35.38
2022-12-17T05:20:53.270Z,28.67
2022-12-17T05:23:38.562Z,35.28
2022-12-17T05:26:41.379Z,32.40
2022-12-17T05:29:26.981Z,36.60
2022-12-17T05:32:12.070Z,34.97
2022-12-17T05:34:57.158Z,36.55
2022-12-17T05:37:42.390Z,37.03
2022-12-17T05:40:27.883Z,31.80
2022-12-17T05:43:18.057Z,36.42
2022-12-17T05:46:03.794Z,36.85
2022-12-17T05:48:48.845Z,36.30
2022-12-17T05:51:38.491Z,39.00
2022-12-17T05:54:24.114Z,37.83
2022-12-17T05:57:09.073Z,33.75
2022-12-17T05:59:54.317Z,36.67
2022-12-17T06:02:39.612Z,32.63
2022-12-17T06:05:24.687Z,31.70
2022-12-17T06:08:09.887Z,34.40
2022-12-17T06:10:54.960Z,35.80
2022-12-17T06:13:40.177Z,37.53
2022-12-17T06:16:25.515Z,35.67
2022-12-17T06:19:10.749Z,32.95
2022-12-17T06:21:55.514Z,35.88
2022-12-17T06:24:45.682Z,36.13
2022-12-17T06:27:31.278Z,33.75
2022-12-17T06:30:18.867Z,32.92
2022-12-17T06:33:04.768Z,36.00
2022-12-17T06:35:50.106Z,33.53
2022-12-17T06:38:35.246Z,34.15
2022-12-17T06:41:20.498Z,34.72
2022-12-17T06:44:05.382Z,35.38
2022-12-17T06:46:50.515Z,33.40
2022-12-17T06:49:35.637Z,31.58
2022-12-17T06:52:20.758Z,31.27
2022-12-17T06:55:05.758Z,33.47
2022-12-17T06:57:50.883Z,36.35
2022-12-17T07:00:36.652Z,33.20
2022-12-17T07:03:21.919Z,36.75
2022-12-17T07:06:07.044Z,37.13
2022-12-17T07:08:52.130Z,41.83
2022-12-17T07:11:37.442Z,44.90
2022-12-17T07:14:22.487Z,42.05
2022-12-17T07:17:07.533Z,40.83
2022-12-17T07:19:52.655Z,39.80
2022-12-17T07:22:37.762Z,37.70
2022-12-17T07:25:22.741Z,40.13
2022-12-17T07:28:16.209Z,35.63
2022-12-17T07:31:01.016Z,36.60
2022-12-17T07:33:45.851Z,45.38
2022-12-17T07:36:31.091Z,40.13
2022-12-17T07:39:16.177Z,37.88
2022-12-17T07:42:01.128Z,45.80
2022-12-17T07:44:46.298Z,38.22
2022-12-17T07:47:31.496Z,38.60
2022-12-17T07:50:16.543Z,42.80
2022-12-17T07:53:01.451Z,44.60
2022-12-17T07:55:46.896Z,43.78
2022-12-17T07:58:32.056Z,45.17
2022-12-17T08:01:20.812Z,46.10
2022-12-17T08:04:06.067Z,40.28
2022-12-17T08:06:52.999Z,40.20
2022-12-17T08:09:41.564Z,37.20
2022-12-17T08:12:26.691Z,32.10
2022-12-17T08:15:11.756Z,35.92
2022-12-17T08:17:56.711Z,30.77
2022-12-17T08:20:41.873Z,31.50
2022-12-17T08:23:27.004Z,34.35
2022-12-17T08:26:12.290Z,33.72
2022-12-17T08:28:57.209Z,34.47
2022-12-17T08:31:42.883Z,37.58
2022-12-17T08:34:27.699Z,35.47
2022-12-17T08:37:12.779Z,40.80
2022-12-17T08:39:57.698Z,46.97
2022-12-17T08:42:42.962Z,53.40
2022-12-17T08:45:28.609Z,53.25
2022-12-17T08:48:21.759Z,57.70
2022-12-17T08:51:06.838Z,45.47
2022-12-17T08:53:51.855Z,43.95
2022-12-17T08:56:37.035Z,40.63
2022-12-17T08:59:22.215Z,43.13
2022-12-17T09:02:07.476Z,106.22
2022-12-17T09:04:52.732Z,113.50
2022-12-17T09:07:38.003Z,133.82
2022-12-17T09:10:23.710Z,70.45
2022-12-17T09:13:08.759Z,70.20
2022-12-17T09:15:53.500Z,63.15
2022-12-17T09:18:40.150Z,81.03
2022-12-17T09:21:26.234Z,256.63
2022-12-17T09:24:11.208Z,232.88
2022-12-17T09:27:16.175Z,477.30
2022-12-17T09:30:01.592Z,298.98
2022-12-17T09:32:46.943Z,226.75
2022-12-17T09:35:32.182Z,148.30
2022-12-17T09:38:17.654Z,107.68
2022-12-17T09:41:06.401Z,70.32
2022-12-17T09:44:10.250Z,67.70
2022-12-17T09:47:04.314Z,61.42
2022-12-17T09:49:50.204Z,56.80
2022-12-17T09:52:45.500Z,48.42
2022-12-17T09:55:36.682Z,49.35
2022-12-17T09:58:22.379Z,46.97
2022-12-17T10:01:08.889Z,43.45
2022-12-17T10:03:54.559Z,50.33
2022-12-17T10:06:44.769Z,45.45
2022-12-17T10:09:32.360Z,45.25
2022-12-17T10:12:18.932Z,55.15
2022-12-17T10:15:04.246Z,55.45
2022-12-17T10:17:49.241Z,52.33
2022-12-17T10:20:45.592Z,46.40
2022-12-17T10:23:41.780Z,51.25
2022-12-17T10:26:26.951Z,45.22
2022-12-17T10:29:30.304Z,45.60
2022-12-17T10:32:37.396Z,50.05
2022-12-17T10:35:46.219Z,45.78
2022-12-17T10:38:46.042Z,43.85
2022-12-17T10:41:59.366Z,42.72
2022-12-17T10:44:52.787Z,49.17
2022-12-17T10:47:39.111Z,49.20
2022-12-17T10:50:42.892Z,50.88
2022-12-17T10:53:40.055Z,44.72
2022-12-17T10:56:25.538Z,45.08
2022-12-17T10:59:12.082Z,42.30
2022-12-17T11:02:01.071Z,45.60
2022-12-17T11:04:48.768Z,43.90
2022-12-17T11:07:44.134Z,46.70
2022-12-17T11:10:38.356Z,47.88
2022-12-17T11:13:41.682Z,42.03
2022-12-17T11:16:37.351Z,42.75
2022-12-17T11:19:28.663Z,42.42
2022-12-17T11:22:16.470Z,43.45
2022-12-17T11:25:43.312Z,42.30
2022-12-17T11:28:41.995Z,43.38
2022-12-17T11:31:36.491Z,42.00
2022-12-17T11:34:41.499Z,46.13
2022-12-17T11:37:49.846Z,44.37
2022-12-17T11:40:40.104Z,41.77
2022-12-17T11:43:35.956Z,36.90
2022-12-17T11:46:35.327Z,40.00
2022-12-17T11:49:57.640Z,44.63
2022-12-17T11:53:13.018Z,62.80
2022-12-17T11:56:26.927Z,57.67
2022-12-17T11:59:39.550Z,38.10
2022-12-17T12:02:57.190Z,37.47
2022-12-17T12:06:01.055Z,36.83
2022-12-17T12:08:53.526Z,33.90
2022-12-17T12:11:56.380Z,37.60
2022-12-17T12:14:59.610Z,35.07
2022-12-17T12:17:58.257Z,34.13
2022-12-17T12:21:11.273Z,34.77
2022-12-17T12:24:20.400Z,34.23
2022-12-17T12:27:19.206Z,31.57
2022-12-17T12:30:15.333Z,36.33
2022-12-17T12:33:15.438Z,34.40
2022-12-17T12:36:00.970Z,36.37
2022-12-17T12:38:53.092Z,33.60
2022-12-17T12:41:59.561Z,34.43
2022-12-17T12:45:03.605Z,34.90
2022-12-17T12:48:10.995Z,35.27
2022-12-17T12:51:22.141Z,34.67
2022-12-17T12:54:18.439Z,33.60
2022-12-17T12:57:06.227Z,35.20
2022-12-17T12:59:54.082Z,33.73
2022-12-17T13:02:39.531Z,36.20
2022-12-17T13:05:34.827Z,34.63
2022-12-17T13:08:07.297Z,36.87
2022-12-17T13:10:35.002Z,33.97
2022-12-17T13:13:12.655Z,35.07
2022-12-17T13:15:42.817Z,32.53
2022-12-17T13:18:36.074Z,34.23
2022-12-17T13:21:26.102Z,36.10
2022-12-17T13:23:53.215Z,35.97
2022-12-17T13:26:22.646Z,34.37
2022-12-17T13:29:04.072Z,40.00
2022-12-17T13:32:04.348Z,34.87
2022-12-17T13:35:10.088Z,36.20
2022-12-17T13:37:55.144Z,33.13
2022-12-17T13:41:09.374Z,35.93
2022-12-17T13:43:54.268Z,39.23
2022-12-17T13:46:23.729Z,35.83
2022-12-17T13:48:58.113Z,36.80
2022-12-17T13:51:28.729Z,35.60
2022-12-17T13:53:59.252Z,37.67
2022-12-17T13:56:30.204Z,37.90
2022-12-17T13:59:00.935Z,35.63
2022-12-17T14:01:30.767Z,32.10
2022-12-17T14:04:06.925Z,35.03
2022-12-17T14:06:36.824Z,44.10
2022-12-17T14:09:03.949Z,36.20
2022-12-17T14:11:50.715Z,46.63
2022-12-17T14:14:30.153Z,42.40
2022-12-17T14:16:56.818Z,37.00
2022-12-17T14:19:24.528Z,38.27
2022-12-17T14:21:51.897Z,36.17
2022-12-17T14:24:27.706Z,39.73
2022-12-17T14:26:59.999Z,38.10
2022-12-17T14:29:31.229Z,35.07
2022-12-17T14:32:03.623Z,38.63
2022-12-17T14:34:41.262Z,40.70
2022-12-17T14:37:16.634Z,38.70
2022-12-17T14:39:45.172Z,37.70
2022-12-17T14:42:30.703Z,42.93
2022-12-17T14:45:03.594Z,37.70
2022-12-17T14:47:31.502Z,38.30
2022-12-17T14:49:59.448Z,43.10
2022-12-17T14:52:53.229Z,39.30
2022-12-17T14:55:23.021Z,38.72
2022-12-17T14:57:50.678Z,39.97
2022-12-17T15:00:17.278Z,37.30
2022-12-17T15:02:44.914Z,42.25
2022-12-17T15:05:15.722Z,43.15
2022-12-17T15:07:42.587Z,40.47
2022-12-17T15:10:13.395Z,39.40
2022-12-17T15:12:42.788Z,40.50
2022-12-17T15:15:15.807Z,40.72
2022-12-17T15:17:42.415Z,40.30
2022-12-17T15:20:16.890Z,38.97
2022-12-17T15:22:43.452Z,42.28
2022-12-17T15:25:14.655Z,36.47
2022-12-17T15:27:41.548Z,37.92
2022-12-17T15:30:12.700Z,34.65
2022-12-17T15:32:39.161Z,37.15
2022-12-17T15:35:06.133Z,38.10
2022-12-17T15:37:32.574Z,39.38
2022-12-17T15:39:59.092Z,37.30
2022-12-17T15:42:44.042Z,41.47
2022-12-17T15:45:10.670Z,37.40
2022-12-17T15:47:37.376Z,40.90
2022-12-17T15:50:04.886Z,39.35
2022-12-17T15:52:31.362Z,37.67
2022-12-17T15:54:57.824Z,38.53
2022-12-17T15:57:24.299Z,42.40
2022-12-17T15:59:51.630Z,44.25
2022-12-17T16:02:18.271Z,45.83
2022-12-17T16:04:44.810Z,42.85
2022-12-17T16:07:11.244Z,53.03
2022-12-17T16:09:37.704Z,53.38
2022-12-17T16:12:04.227Z,43.22
2022-12-17T16:14:30.687Z,43.85
2022-12-17T16:16:57.130Z,39.45
2022-12-17T16:19:23.739Z,38.75
2022-12-17T16:21:50.197Z,35.67
2022-12-17T16:24:16.651Z,35.28
2022-12-17T16:26:43.108Z,45.53
2022-12-17T16:29:09.613Z,47.25
2022-12-17T16:31:36.145Z,42.35
2022-12-17T16:34:03.084Z,39.92
2022-12-17T16:36:29.601Z,40.78
2022-12-17T16:38:56.061Z,38.55
2022-12-17T16:41:22.895Z,36.17
2022-12-17T16:43:49.505Z,33.95
2022-12-17T16:46:38.122Z,35.22
2022-12-17T16:49:09.010Z,31.75
2022-12-17T16:51:36.215Z,29.90
2022-12-17T16:54:13.301Z,32.47
2022-12-17T16:56:40.721Z,31.73
2022-12-17T16:59:08.462Z,34.35
2022-12-17T17:01:35.676Z,33.10
2022-12-17T17:04:04.403Z,32.95
2022-12-17T17:06:33.765Z,32.03
2022-12-17T17:09:06.313Z,33.35
2022-12-17T17:11:32.965Z,33.85
2022-12-17T17:13:59.512Z,33.08
2022-12-17T17:16:26.713Z,29.73
2022-12-17T17:18:54.179Z,32.28
2022-12-17T17:21:20.592Z,35.13
2022-12-17T17:23:48.926Z,34.70
2022-12-17T17:26:16.123Z,35.05
2022-12-17T17:28:43.071Z,33.75
2022-12-17T17:31:12.403Z,32.22
2022-12-17T17:33:43.084Z,36.55
2022-12-17T17:36:11.655Z,43.10
2022-12-17T17:38:39.569Z,43.42
2022-12-17T17:41:08.704Z,41.17
2022-12-17T17:43:35.558Z,40.45
2022-12-17T17:46:15.759Z,31.42
2022-12-17T17:48:43.895Z,31.70
2022-12-17T17:51:29.532Z,36.85
2022-12-17T17:54:11.007Z,31.20
2022-12-17T17:56:41.738Z,30.23
2022-12-17T17:59:13.394Z,30.55
2022-12-17T18:01:43.194Z,31.88
2022-12-17T18:04:16.962Z,33.97
2022-12-17T18:07:02.602Z,33.70
2022-12-17T18:09:31.481Z,33.70
2022-12-17T18:12:17.939Z,30.83
2022-12-17T18:15:12.104Z,33.17
2022-12-17T18:17:31.515Z,30.85
2022-12-17T18:19:58.224Z,31.98
2022-12-17T18:22:24.733Z,32.80
2022-12-17T18:24:51.164Z,35.35
2022-12-17T18:27:17.991Z,35.65
2022-12-17T18:29:44.454Z,34.95
2022-12-17T18:32:10.924Z,33.13
2022-12-17T18:34:37.425Z,33.58
2022-12-17T18:37:05.501Z,37.72
2022-12-17T18:39:33.004Z,41.65
2022-12-17T18:42:18.154Z,39.22
2022-12-17T18:44:44.607Z,36.67
2022-12-17T18:47:11.260Z,39.95
2022-12-17T18:49:37.881Z,42.88
2022-12-17T18:52:04.403Z,38.17
2022-12-17T18:54:31.355Z,40.55
2022-12-17T18:57:02.262Z,36.67
2022-12-17T18:59:30.443Z,40.67
2022-12-17T19:01:57.529Z,38.08
2022-12-17T19:04:25.249Z,39.15
2022-12-17T19:06:53.679Z,37.35
2022-12-17T19:09:31.208Z,39.95
2022-12-17T19:11:58.535Z,44.33
2022-12-17T19:14:25.749Z,41.10
2022-12-17T19:16:53.892Z,39.45
2022-12-17T19:19:21.297Z,39.15
2022-12-17T19:21:48.778Z,42.03
2022-12-17T19:24:17.328Z,44.38
2022-12-17T19:26:44.855Z,35.75
2022-12-17T19:29:13.215Z,43.50
2022-12-17T19:31:40.107Z,38.42
2022-12-17T19:34:09.658Z,35.53
2022-12-17T19:36:36.468Z,33.00
2022-12-17T19:39:07.237Z,37.85
2022-12-17T19:41:34.081Z,39.88
2022-12-17T19:44:03.058Z,38.22
2022-12-17T19:46:32.111Z,38.33
2022-12-17T19:48:59.034Z,33.03
2022-12-17T19:51:27.366Z,32.00
2022-12-17T19:53:54.811Z,30.95
2022-12-17T19:56:29.686Z,30.48
2022-12-17T19:59:02.144Z,34.28
2022-12-17T20:01:33.693Z,32.38
2022-12-17T20:04:00.525Z,31.23
2022-12-17T20:06:29.375Z,35.28
2022-12-17T20:08:55.935Z,30.98
2022-12-17T20:11:34.638Z,29.73
2022-12-17T20:14:17.822Z,29.50
2022-12-17T20:16:58.713Z,29.92
2022-12-17T20:19:31.161Z,31.15
2022-12-17T20:21:59.213Z,32.50
2022-12-17T20:24:31.217Z,36.67
2022-12-17T20:26:59.381Z,32.38
2022-12-17T20:29:26.606Z,31.30
2022-12-17T20:31:55.018Z,31.75
2022-12-17T20:34:23.452Z,30.80
2022-12-17T20:36:51.096Z,28.20
2022-12-17T20:39:26.202Z,28.85
2022-12-17T20:41:57.972Z,27.83
2022-12-17T20:44:25.567Z,30.33
2022-12-17T20:46:52.555Z,33.22
2022-12-17T20:49:19.747Z,32.47
2022-12-17T20:51:46.295Z,33.70
2022-12-17T20:54:12.823Z,32.05
2022-12-17T20:56:39.885Z,28.42
2022-12-17T20:59:08.849Z,29.60
2022-12-17T21:01:36.574Z,29.15
2022-12-17T21:04:04.046Z,25.13
2022-12-17T21:06:34.644Z,31.30
2022-12-17T21:09:01.732Z,30.85
2022-12-17T21:11:30.531Z,32.25
2022-12-17T21:13:57.650Z,29.88
2022-12-17T21:16:27.655Z,27.15
2022-12-17T21:18:55.539Z,30.75
2022-12-17T21:21:24.335Z,38.05
2022-12-17T21:23:51.049Z,35.78
2022-12-17T21:26:27.300Z,37.97
2022-12-17T21:28:55.485Z,39.28
2022-12-17T21:31:27.692Z,54.53
2022-12-17T21:33:58.990Z,43.13
2022-12-17T21:36:27.899Z,34.47
2022-12-17T21:38:54.972Z,29.98
2022-12-17T21:41:23.817Z,27.77
2022-12-17T21:43:57.925Z,27.83
2022-12-17T21:46:27.187Z,32.42
2022-12-17T21:48:54.615Z,27.70
2022-12-17T21:51:22.063Z,33.15
2022-12-17T21:53:52.956Z,29.77
2022-12-17T21:56:20.116Z,31.45
2022-12-17T21:58:47.161Z,29.52
2022-12-17T22:01:18.914Z,32.38
2022-12-17T22:03:47.114Z,29.08
2022-12-17T22:06:17.240Z,37.35
2022-12-17T22:08:45.462Z,37.08
2022-12-17T22:11:21.090Z,33.40
2022-12-17T22:14:08.590Z,31.00
2022-12-17T22:16:47.066Z,27.05
2022-12-17T22:19:22.440Z,29.15
2022-12-17T22:21:50.258Z,30.23
2022-12-17T22:24:21.398Z,29.58
2022-12-17T22:26:48.417Z,32.40
2022-12-17T22:29:37.780Z,38.15
2022-12-17T22:32:28.279Z,32.28
2022-12-17T22:36:08.295Z,27.35
2022-12-17T22:39:59.397Z,28.92
2022-12-17T22:44:30.301Z,29.30
2022-12-17T22:44:44.078Z,32.67
2022-12-17T22:46:16.539Z,28.33
2022-12-17T22:48:43.128Z,34.35
2022-12-17T22:51:13.305Z,26.42
2022-12-17T22:53:53.961Z,32.15
2022-12-17T22:56:32.330Z,26.42
2022-12-17T22:59:08.864Z,26.33
2022-12-17T23:01:35.760Z,26.77
2022-12-17T23:04:03.735Z,26.05
2022-12-17T23:06:30.329Z,32.10
2022-12-17T23:08:56.818Z,26.13
2022-12-17T23:11:25.306Z,28.48
2022-12-17T23:13:52.918Z,30.48
2022-12-17T23:16:20.237Z,24.55
2022-12-17T23:18:48.302Z,26.60
2022-12-17T23:21:17.972Z,26.23
2022-12-17T23:23:44.566Z,26.08
2022-12-17T23:26:19.892Z,26.38
2022-12-17T23:28:46.668Z,24.83
2022-12-17T23:31:16.219Z,25.20
2022-12-17T23:33:42.973Z,25.83
2022-12-17T23:36:11.830Z,22.05
2022-12-17T23:38:38.966Z,21.88
2022-12-17T23:41:07.267Z,25.58
2022-12-17T23:43:34.203Z,24.25
2022-12-17T23:46:00.778Z,24.20
2022-12-17T23:48:31.734Z,24.25
2022-12-17T23:50:58.944Z,25.38
2022-12-17T23:53:26.599Z,21.55
2022-12-17T23:55:53.140Z,25.15
2022-12-17T23:58:19.917Z,22.30
